Time;durP1;ratioP1;P1;durP2;ratioP2;P2;SDS_P1;SDS_P2;PMS_P1;PMS_P2;Temp;Humidity;BMP_temperature;BMP_pressure;BME280_temperature;BME280_humidity;BME280_pressure;Samples;Min_cycle;Max_cycle;Signal;HPM_P1;HPM_P2
2023/08/16 00:00:59;;;;;;;5.68;3.10;;;25.00;99.90;;;;;;5052954;28;20243;-76
2023/08/16 00:03:26;;;;;;;3.00;2.67;;;25.10;99.90;;;;;;5053406;28;20203;-72
2023/08/16 00:05:53;;;;;;;2.95;2.75;;;25.20;99.90;;;;;;5053093;28;20241;-71
2023/08/16 00:08:20;;;;;;;3.03;2.63;;;25.10;99.90;;;;;;5053166;28;20716;-72
2023/08/16 00:10:47;;;;;;;2.72;2.47;;;25.10;99.90;;;;;;5053330;28;20226;-71
2023/08/16 00:13:15;;;;;;;3.45;2.58;;;25.20;99.90;;;;;;5053633;28;20243;-71
2023/08/16 00:15:42;;;;;;;4.53;2.88;;;25.10;99.90;;;;;;5053186;28;20646;-71
2023/08/16 00:18:09;;;;;;;2.70;2.45;;;25.20;99.90;;;;;;5053173;28;20211;-72
2023/08/16 00:20:36;;;;;;;2.97;2.67;;;25.10;99.90;;;;;;5052868;28;20246;-71
2023/08/16 00:23:03;;;;;;;2.30;2.10;;;25.20;99.90;;;;;;5052847;28;20617;-72
2023/08/16 00:25:29;;;;;;;5.68;3.30;;;25.20;99.90;;;;;;5053254;28;20246;-71
2023/08/16 00:27:56;;;;;;;3.30;2.13;;;25.20;99.90;;;;;;5052681;28;20269;-72
2023/08/16 00:30:25;;;;;;;3.22;2.85;;;25.10;99.90;;;;;;5052954;28;20234;-69
2023/08/16 00:32:52;;;;;;;3.75;2.40;;;25.10;99.90;;;;;;5052243;28;20253;-68
2023/08/16 00:35:19;;;;;;;5.07;3.17;;;25.10;99.90;;;;;;5052741;28;20651;-69
2023/08/16 00:37:46;;;;;;;5.25;2.92;;;25.10;99.90;;;;;;5052950;28;20257;-68
2023/08/16 00:40:13;;;;;;;3.50;3.20;;;25.10;99.90;;;;;;5053290;28;20203;-70
2023/08/16 00:42:40;;;;;;;3.22;2.90;;;25.10;99.90;;;;;;5052974;28;20665;-69
2023/08/16 00:45:07;;;;;;;3.25;2.90;;;25.20;99.90;;;;;;5052025;28;21122;-70
2023/08/16 00:47:36;;;;;;;4.35;3.35;;;25.20;99.90;;;;;;5052234;28;20270;-70
2023/08/16 00:50:03;;;;;;;5.30;2.45;;;25.10;99.90;;;;;;5052284;28;20238;-70
2023/08/16 00:52:31;;;;;;;2.60;2.40;;;25.20;99.90;;;;;;5052451;28;20211;-69
2023/08/16 00:54:58;;;;;;;3.25;2.75;;;25.20;99.90;;;;;;5051999;28;20682;-69
2023/08/16 00:57:25;;;;;;;2.97;2.60;;;25.20;99.90;;;;;;5052574;28;20242;-70
2023/08/16 00:59:52;;;;;;;5.45;3.03;;;25.20;99.90;;;;;;5051792;28;20252;-71
2023/08/16 01:02:20;;;;;;;5.35;2.50;;;25.20;99.90;;;;;;5052242;28;20246;-70
2023/08/16 01:04:48;;;;;;;2.47;2.28;;;25.10;99.90;;;;;;5052132;28;20294;-71
2023/08/16 01:07:15;;;;;;;4.68;2.50;;;25.10;99.90;;;;;;5052500;28;20271;-72
2023/08/16 01:09:42;;;;;;;3.30;3.00;;;25.10;99.90;;;;;;5052577;28;20203;-70
2023/08/16 01:12:15;;;;;;;4.20;2.97;;;25.10;99.90;;;;;;5051949;28;20246;-73
2023/08/16 01:14:51;;;;;;;4.53;2.90;;;25.20;99.90;;;;;;5052118;28;20246;-69
2023/08/16 01:17:21;;;;;;;4.25;2.90;;;25.10;99.90;;;;;;5052081;28;20234;-71
2023/08/16 01:19:51;;;;;;;5.10;3.08;;;25.20;99.90;;;;;;5051811;28;20206;-71
2023/08/16 01:22:27;;;;;;;2.95;2.38;;;25.20;99.90;;;;;;5051840;28;20679;-70
2023/08/16 01:25:08;;;;;;;4.43;2.67;;;25.10;99.90;;;;;;5051491;28;20206;-70
2023/08/16 01:27:36;;;;;;;2.90;2.42;;;25.10;99.90;;;;;;5051335;28;20230;-70
2023/08/16 01:30:04;;;;;;;2.72;2.35;;;25.20;99.90;;;;;;5051681;28;20202;-70
2023/08/16 01:32:32;;;;;;;3.50;3.20;;;25.20;99.90;;;;;;5051470;28;20732;-71
2023/08/16 01:34:59;;;;;;;4.07;2.15;;;25.20;99.90;;;;;;5051463;28;20206;-70
2023/08/16 01:37:27;;;;;;;2.42;2.08;;;25.10;99.90;;;;;;5051509;28;20203;-71
2023/08/16 01:39:54;;;;;;;2.95;2.10;;;25.10;99.90;;;;;;5051254;28;20256;-69
2023/08/16 01:42:23;;;;;;;5.03;2.63;;;25.10;99.90;;;;;;5051614;28;20207;-75
2023/08/16 01:44:52;;;;;;;5.57;3.22;;;25.10;99.90;;;;;;5051415;28;20198;-69
2023/08/16 01:47:20;;;;;;;2.90;2.17;;;25.10;99.90;;;;;;5051516;28;20345;-73
2023/08/16 01:49:47;;;;;;;3.47;2.40;;;25.10;99.90;;;;;;5051197;28;20249;-69
2023/08/16 01:52:14;;;;;;;4.15;2.38;;;25.00;99.90;;;;;;5051604;28;20299;-70
2023/08/16 01:54:41;;;;;;;3.10;2.60;;;25.10;99.90;;;;;;5051224;28;20281;-69
2023/08/16 01:57:08;;;;;;;4.22;2.42;;;25.00;99.90;;;;;;5050795;28;20717;-69
2023/08/16 01:59:35;;;;;;;3.03;2.03;;;25.00;99.90;;;;;;5051234;28;20347;-70
2023/08/16 02:02:03;;;;;;;4.28;2.63;;;25.00;99.90;;;;;;5050987;28;20234;-70
2023/08/16 02:04:30;;;;;;;2.47;2.28;;;24.90;99.90;;;;;;5050956;28;20249;-71
2023/08/16 02:06:57;;;;;;;3.28;2.78;;;24.80;99.90;;;;;;5050878;28;20241;-77
2023/08/16 02:09:24;;;;;;;3.45;2.20;;;24.80;99.90;;;;;;5050919;28;20242;-79
2023/08/16 02:11:51;;;;;;;4.88;3.08;;;24.90;99.90;;;;;;5049046;28;20211;-74
2023/08/16 02:14:18;;;;;;;3.13;2.53;;;25.00;99.90;;;;;;5051066;28;20238;-70
2023/08/16 02:16:45;;;;;;;2.20;2.00;;;25.00;99.90;;;;;;5051102;28;20776;-71
2023/08/16 02:19:13;;;;;;;3.03;2.72;;;25.00;99.90;;;;;;5050985;28;20210;-70
2023/08/16 02:21:40;;;;;;;4.30;2.10;;;25.00;99.90;;;;;;5051105;28;20284;-72
2023/08/16 02:24:08;;;;;;;3.00;2.35;;;24.90;99.90;;;;;;5036765;28;20243;-69
2023/08/16 02:26:36;;;;;;;4.85;2.35;;;24.90;99.90;;;;;;5050868;28;20210;-69
2023/08/16 02:29:03;;;;;;;3.53;2.85;;;24.90;99.90;;;;;;5050152;28;20262;-69
2023/08/16 02:31:29;;;;;;;3.08;2.50;;;24.90;99.90;;;;;;5050607;28;20260;-69
2023/08/16 02:33:57;;;;;;;3.15;2.60;;;24.80;99.90;;;;;;5049920;28;20709;-71
2023/08/16 02:36:25;;;;;;;3.67;2.60;;;24.70;99.90;;;;;;5050654;28;20206;-71
2023/08/16 02:38:52;;;;;;;5.55;3.22;;;24.70;99.90;;;;;;5049984;28;20249;-70
2023/08/16 02:41:19;;;;;;;2.88;2.65;;;24.70;99.90;;;;;;5050433;28;20268;-70
2023/08/16 02:43:46;;;;;;;3.13;2.17;;;24.60;99.90;;;;;;5050718;28;20230;-71
2023/08/16 02:46:13;;;;;;;3.42;2.42;;;24.70;99.90;;;;;;5050625;28;20670;-69
2023/08/16 02:48:39;;;;;;;4.60;2.55;;;24.70;99.90;;;;;;5050588;28;20270;-73
2023/08/16 02:51:06;;;;;;;3.42;2.53;;;24.70;99.90;;;;;;5050017;28;20239;-69
2023/08/16 02:53:35;;;;;;;5.03;2.78;;;24.70;99.90;;;;;;5050462;28;20210;-69
2023/08/16 02:56:01;;;;;;;3.25;2.28;;;24.60;99.90;;;;;;5049804;28;20241;-68
2023/08/16 02:58:28;;;;;;;2.75;2.08;;;24.60;99.90;;;;;;5050407;28;20210;-68
2023/08/16 03:00:56;;;;;;;2.33;2.13;;;24.60;99.90;;;;;;5049654;28;20238;-68
2023/08/16 03:03:23;;;;;;;2.45;2.25;;;24.60;99.90;;;;;;5050660;28;20202;-68
2023/08/16 03:05:50;;;;;;;3.70;2.22;;;24.60;99.90;;;;;;5050184;28;20206;-68
2023/08/16 03:08:17;;;;;;;5.18;2.78;;;24.60;99.90;;;;;;5054196;28;20725;-68
2023/08/16 03:10:45;;;;;;;4.05;2.33;;;24.50;99.90;;;;;;5054280;28;20674;-69
2023/08/16 03:13:12;;;;;;;2.28;2.08;;;24.60;99.90;;;;;;5054690;28;20242;-70
2023/08/16 03:15:39;;;;;;;2.78;2.55;;;24.50;99.90;;;;;;5054524;28;20590;-70
2023/08/16 03:18:06;;;;;;;2.38;2.20;;;24.50;99.90;;;;;;5053887;28;20238;-71
2023/08/16 03:20:33;;;;;;;2.90;2.22;;;24.40;99.90;;;;;;5054585;28;20286;-70
2023/08/16 03:23:00;;;;;;;3.58;2.60;;;24.50;99.90;;;;;;5053933;28;20246;-70
2023/08/16 03:25:27;;;;;;;2.85;2.28;;;24.50;99.90;;;;;;5053785;28;20678;-70
2023/08/16 03:27:55;;;;;;;4.13;2.75;;;24.50;99.90;;;;;;5053681;28;20326;-70
2023/08/16 03:30:22;;;;;;;7.43;2.63;;;24.50;99.90;;;;;;5053936;28;20634;-70
2023/08/16 03:32:49;;;;;;;3.38;2.85;;;24.50;99.90;;;;;;5053899;28;20254;-68
2023/08/16 03:35:16;;;;;;;3.15;2.65;;;24.50;99.90;;;;;;5053822;28;20320;-68
2023/08/16 03:37:43;;;;;;;2.78;2.45;;;24.50;99.90;;;;;;5054254;28;20639;-68
2023/08/16 03:40:11;;;;;;;3.70;2.25;;;24.50;99.90;;;;;;5053749;28;20249;-68
2023/08/16 03:42:38;;;;;;;3.35;2.45;;;24.50;99.90;;;;;;5053863;28;20202;-69
2023/08/16 03:45:07;;;;;;;3.25;2.63;;;24.50;99.90;;;;;;5053525;28;20242;-70
2023/08/16 03:47:34;;;;;;;2.47;2.28;;;24.50;99.90;;;;;;5053506;28;20580;-71
2023/08/16 03:50:01;;;;;;;4.80;2.92;;;24.60;99.90;;;;;;5053629;28;20242;-72
2023/08/16 03:52:28;;;;;;;4.50;2.75;;;24.70;99.90;;;;;;5053286;28;20242;-71
2023/08/16 03:54:54;;;;;;;3.60;2.42;;;24.70;99.90;;;;;;5053188;28;20242;-72
2023/08/16 03:57:23;;;;;;;2.72;2.15;;;24.70;99.90;;;;;;5053314;28;20293;-72
2023/08/16 03:59:51;;;;;;;3.63;2.42;;;24.60;99.90;;;;;;5053405;28;20207;-72
2023/08/16 04:02:20;;;;;;;2.67;2.20;;;24.50;99.90;;;;;;5053441;28;20210;-70
2023/08/16 04:04:53;;;;;;;3.70;2.60;;;24.60;99.90;;;;;;5053131;28;20235;-70
2023/08/16 04:07:21;;;;;;;3.88;3.03;;;24.60;99.90;;;;;;5053186;28;20238;-71
2023/08/16 04:09:48;;;;;;;8.45;3.10;;;24.60;99.90;;;;;;5039325;28;20242;-66
2023/08/16 04:12:15;;;;;;;3.13;2.38;;;24.60;99.90;;;;;;5053590;28;20257;-70
2023/08/16 04:14:42;;;;;;;4.95;3.17;;;24.60;99.90;;;;;;5053304;28;20203;-70
2023/08/16 04:17:09;;;;;;;5.03;3.10;;;24.60;99.90;;;;;;5053271;28;20206;-71
2023/08/16 04:19:37;;;;;;;2.72;2.42;;;24.70;99.90;;;;;;5052358;28;20249;-70
2023/08/16 04:22:04;;;;;;;3.67;3.10;;;24.60;99.90;;;;;;5052501;28;20203;-70
2023/08/16 04:24:31;;;;;;;3.35;2.55;;;24.60;99.90;;;;;;5052992;28;20265;-70
2023/08/16 04:26:58;;;;;;;3.53;3.03;;;24.60;99.90;;;;;;5052670;28;20230;-70
2023/08/16 04:29:25;;;;;;;4.03;3.35;;;24.50;99.90;;;;;;5053106;28;20270;-69
2023/08/16 04:31:52;;;;;;;3.38;2.92;;;24.40;99.90;;;;;;5052496;28;20214;-70
2023/08/16 04:34:19;;;;;;;4.25;3.30;;;24.40;99.90;;;;;;5052822;28;20242;-70
2023/08/16 04:36:47;;;;;;;2.88;2.45;;;24.40;99.90;;;;;;5052374;28;20639;-70
2023/08/16 04:39:14;;;;;;;3.30;2.95;;;24.40;99.90;;;;;;5052924;28;20309;-70
2023/08/16 04:41:41;;;;;;;3.03;2.75;;;24.40;99.90;;;;;;5053364;28;20245;-69
2023/08/16 04:44:08;;;;;;;3.53;2.97;;;24.40;99.90;;;;;;5052259;28;20286;-70
2023/08/16 04:46:35;;;;;;;6.38;3.40;;;24.30;99.90;;;;;;5052707;28;20332;-69
2023/08/16 04:49:02;;;;;;;3.38;2.47;;;24.20;99.90;;;;;;5052005;28;20288;-70
2023/08/16 04:51:29;;;;;;;3.50;3.20;;;24.10;99.90;;;;;;5052304;28;20678;-69
2023/08/16 04:53:57;;;;;;;3.38;3.10;;;24.10;99.90;;;;;;5052196;28;20242;-70
2023/08/16 04:56:24;;;;;;;4.28;3.08;;;24.20;99.90;;;;;;5052565;28;20700;-69
2023/08/16 04:58:51;;;;;;;4.32;3.28;;;24.30;99.90;;;;;;5051729;28;20253;-69
2023/08/16 05:01:19;;;;;;;3.13;2.90;;;24.20;99.90;;;;;;5052425;28;20277;-69
2023/08/16 05:03:50;;;;;;;3.92;3.63;;;24.10;99.90;;;;;;5052109;28;20213;-70
2023/08/16 05:06:17;;;;;;;3.45;2.08;;;24.10;99.90;;;;;;5052176;28;20199;-69
2023/08/16 05:08:44;;;;;;;4.10;2.80;;;24.00;99.90;;;;;;5052257;28;20238;-69
2023/08/16 05:11:12;;;;;;;5.15;3.28;;;24.00;99.90;;;;;;5052092;28;20697;-69
2023/08/16 05:13:39;;;;;;;5.55;3.30;;;24.10;99.90;;;;;;5052353;28;20682;-69
2023/08/16 05:16:06;;;;;;;3.75;2.97;;;24.00;99.90;;;;;;5051766;28;20245;-68
2023/08/16 05:18:33;;;;;;;3.72;3.17;;;24.00;99.90;;;;;;5051856;28;20245;-69
2023/08/16 05:21:00;;;;;;;3.13;2.80;;;24.00;99.90;;;;;;5051620;28;20702;-68
2023/08/16 05:23:27;;;;;;;3.40;3.10;;;24.10;99.90;;;;;;5051758;28;20769;-69
2023/08/16 05:25:54;;;;;;;3.58;3.28;;;24.20;99.90;;;;;;5051679;28;20246;-68
2023/08/16 05:28:23;;;;;;;7.13;3.38;;;24.20;99.90;;;;;;5051827;28;20266;-69
2023/08/16 05:30:49;;;;;;;3.42;3.10;;;24.30;99.90;;;;;;5050598;28;20288;-69
2023/08/16 05:33:16;;;;;;;3.90;3.40;;;24.30;99.90;;;;;;5051761;28;20211;-68
2023/08/16 05:35:44;;;;;;;3.70;3.40;;;24.10;99.90;;;;;;5052076;28;20202;-70
2023/08/16 05:38:10;;;;;;;3.38;3.08;;;24.10;99.90;;;;;;5051635;28;20264;-70
2023/08/16 05:40:37;;;;;;;3.28;2.97;;;24.20;99.90;;;;;;5051613;28;20235;-70
2023/08/16 05:43:05;;;;;;;3.70;3.40;;;24.10;99.90;;;;;;5051194;28;20565;-69
2023/08/16 05:45:33;;;;;;;4.50;3.40;;;24.20;99.90;;;;;;5051290;28;20570;-69
2023/08/16 05:48:00;;;;;;;4.00;3.13;;;24.20;99.90;;;;;;5051092;28;20241;-69
2023/08/16 05:50:27;;;;;;;6.30;3.90;;;24.10;99.90;;;;;;5051052;28;20693;-69
2023/08/16 05:52:54;;;;;;;3.00;2.70;;;24.20;99.90;;;;;;5051125;28;20238;-69
2023/08/16 05:55:21;;;;;;;5.03;3.42;;;24.30;99.90;;;;;;5047063;28;20260;-73
2023/08/16 05:57:48;;;;;;;2.80;2.60;;;24.30;99.90;;;;;;5049829;28;20675;-69
2023/08/16 06:00:16;;;;;;;3.58;2.85;;;24.30;99.90;;;;;;5050454;28;20242;-70
2023/08/16 06:02:44;;;;;;;4.55;2.90;;;24.30;99.90;;;;;;5049428;28;20210;-68
2023/08/16 06:05:11;;;;;;;3.33;2.70;;;24.30;99.90;;;;;;5054807;28;20324;-69
2023/08/16 06:07:38;;;;;;;3.45;2.47;;;24.20;99.90;;;;;;5051441;28;20674;-69
2023/08/16 06:10:06;;;;;;;4.20;3.28;;;24.20;99.90;;;;;;5058554;28;20729;-70
2023/08/16 06:12:33;;;;;;;4.00;3.60;;;24.30;99.90;;;;;;5050445;28;20210;-70
2023/08/16 06:15:00;;;;;;;4.47;3.05;;;24.30;99.90;;;;;;5049886;28;20230;-68
2023/08/16 06:17:27;;;;;;;4.75;3.35;;;24.20;99.90;;;;;;5048789;28;20242;-69
2023/08/16 06:19:55;;;;;;;5.00;2.80;;;24.30;99.90;;;;;;5050260;28;20242;-69
2023/08/16 06:22:22;;;;;;;3.80;3.47;;;24.30;99.90;;;;;;5050895;28;20686;-70
2023/08/16 06:24:49;;;;;;;5.72;3.33;;;24.40;99.90;;;;;;5050332;28;20257;-69
2023/08/16 06:27:16;;;;;;;4.38;3.53;;;24.40;99.90;;;;;;5037069;28;20242;-69
2023/08/16 06:29:43;;;;;;;3.47;3.25;;;24.50;99.90;;;;;;5050984;28;20598;-69
2023/08/16 06:32:10;;;;;;;5.25;3.72;;;24.50;99.90;;;;;;5050405;28;20268;-68
2023/08/16 06:34:38;;;;;;;7.32;3.03;;;24.50;99.90;;;;;;5050635;28;20620;-69
2023/08/16 06:37:06;;;;;;;5.65;3.55;;;24.60;99.90;;;;;;5050294;28;20241;-69
2023/08/16 06:39:34;;;;;;;4.13;2.72;;;24.60;99.90;;;;;;5050560;28;20245;-68
2023/08/16 06:42:00;;;;;;;5.80;3.25;;;24.60;99.90;;;;;;5049714;28;20217;-69
2023/08/16 06:44:27;;;;;;;3.95;2.95;;;24.70;99.90;;;;;;5050858;28;20207;-68
2023/08/16 06:46:54;;;;;;;5.45;3.50;;;24.80;99.90;;;;;;5050211;28;20253;-69
2023/08/16 06:49:22;;;;;;;5.15;3.00;;;24.90;99.90;;;;;;5040529;28;20269;-69
2023/08/16 06:51:49;;;;;;;3.33;3.03;;;25.00;99.90;;;;;;5046712;28;20203;-69
2023/08/16 06:54:17;;;;;;;4.45;3.30;;;25.10;99.90;;;;;;5047818;28;20210;-69
2023/08/16 06:56:44;;;;;;;6.78;3.85;;;25.10;99.90;;;;;;5049396;28;20213;-69
2023/08/16 06:59:11;;;;;;;6.47;3.45;;;25.00;99.90;;;;;;5049691;28;20242;-69
2023/08/16 07:01:38;;;;;;;6.40;3.78;;;25.20;99.90;;;;;;5049974;28;20250;-68
2023/08/16 07:04:06;;;;;;;4.15;3.33;;;25.30;99.90;;;;;;5046481;28;20604;-69
2023/08/16 07:06:32;;;;;;;3.88;2.97;;;25.20;99.90;;;;;;5049271;28;20655;-71
2023/08/16 07:09:00;;;;;;;3.05;2.55;;;25.30;99.90;;;;;;5047693;28;20258;-71
2023/08/16 07:11:28;;;;;;;3.22;2.97;;;25.40;99.90;;;;;;5046081;28;20211;-72
2023/08/16 07:13:55;;;;;;;4.47;3.10;;;25.50;99.90;;;;;;5049164;28;20245;-70
2023/08/16 07:16:22;;;;;;;3.75;2.35;;;25.60;99.90;;;;;;5049135;28;20242;-70
2023/08/16 07:18:49;;;;;;;7.90;4.03;;;25.60;99.90;;;;;;5048745;28;20238;-70
2023/08/16 07:21:15;;;;;;;3.30;3.00;;;25.40;99.90;;;;;;5049428;28;20383;-70
2023/08/16 07:23:44;;;;;;;3.40;2.78;;;25.40;99.90;;;;;;5049690;28;20207;-71
2023/08/16 07:26:11;;;;;;;6.00;3.40;;;25.60;99.90;;;;;;5049631;28;20210;-70
2023/08/16 07:28:39;;;;;;;4.03;3.60;;;25.60;99.90;;;;;;5049626;28;20292;-70
2023/08/16 07:31:06;;;;;;;4.43;3.20;;;25.90;99.90;;;;;;5048847;28;20647;-69
2023/08/16 07:33:35;;;;;;;4.43;2.97;;;26.10;99.90;;;;;;5049279;28;20284;-69
2023/08/16 07:36:03;;;;;;;5.72;3.38;;;26.10;99.90;;;;;;5047273;28;20291;-70
2023/08/16 07:38:32;;;;;;;3.97;3.58;;;26.10;99.90;;;;;;5047582;28;20604;-70
2023/08/16 07:41:00;;;;;;;4.78;3.17;;;26.20;99.90;;;;;;5047446;28;20302;-70
2023/08/16 07:43:29;;;;;;;4.32;3.25;;;26.30;99.90;;;;;;5049187;28;20215;-70
2023/08/16 07:45:57;;;;;;;3.67;3.38;;;26.80;99.90;;;;;;5048392;28;20203;-70
2023/08/16 07:48:24;;;;;;;4.43;3.28;;;26.90;99.90;;;;;;5049187;28;20207;-70
2023/08/16 07:50:51;;;;;;;5.53;3.22;;;27.00;99.90;;;;;;5048609;28;20237;-69
2023/08/16 07:53:22;;;;;;;4.35;3.58;;;27.00;99.90;;;;;;5050514;28;20207;-69
2023/08/16 07:55:49;;;;;;;3.85;3.00;;;27.00;99.90;;;;;;5052463;28;20206;-71
2023/08/16 07:58:16;;;;;;;5.50;3.00;;;27.10;99.90;;;;;;5053342;28;20213;-70
2023/08/16 08:00:46;;;;;;;3.67;3.25;;;27.60;99.90;;;;;;5052900;28;20649;-71
2023/08/16 08:03:14;;;;;;;3.55;2.80;;;27.60;99.90;;;;;;5053112;28;20596;-70
2023/08/16 08:05:41;;;;;;;3.85;3.13;;;27.30;99.90;;;;;;5053295;28;20667;-71
2023/08/16 08:08:08;;;;;;;3.08;2.78;;;27.10;99.90;;;;;;5053001;28;20253;-70
2023/08/16 08:10:35;;;;;;;3.42;3.03;;;27.40;99.90;;;;;;5052001;28;20241;-71
2023/08/16 08:13:02;;;;;;;3.10;2.85;;;27.30;99.90;;;;;;5052738;28;20235;-70
2023/08/16 08:15:29;;;;;;;5.47;2.67;;;27.40;99.90;;;;;;5052739;28;20214;-70
2023/08/16 08:17:56;;;;;;;2.90;2.70;;;27.30;99.90;;;;;;5052629;28;20618;-71
2023/08/16 08:20:25;;;;;;;5.10;3.15;;;27.40;99.90;;;;;;5053266;28;20238;-70
2023/08/16 08:22:51;;;;;;;4.18;2.63;;;27.40;99.90;;;;;;5053038;28;20270;-71
2023/08/16 08:25:18;;;;;;;7.82;3.70;;;27.60;99.90;;;;;;5052913;28;20674;-70
2023/08/16 08:27:46;;;;;;;6.03;3.00;;;27.70;99.90;;;;;;5052783;28;20253;-70
2023/08/16 08:30:14;;;;;;;3.38;2.78;;;27.70;99.90;;;;;;5052939;28;20234;-71
2023/08/16 08:32:41;;;;;;;2.70;2.50;;;27.60;99.90;;;;;;5053498;28;20661;-71
2023/08/16 08:35:08;;;;;;;3.20;2.80;;;27.90;99.90;;;;;;5052542;28;20234;-71
2023/08/16 08:37:37;;;;;;;3.03;2.78;;;28.00;99.90;;;;;;5052993;28;20253;-70
2023/08/16 08:40:05;;;;;;;2.67;2.47;;;27.90;99.90;;;;;;5052505;28;20280;-71
2023/08/16 08:42:33;;;;;;;2.80;2.60;;;28.10;99.90;;;;;;5051902;28;20202;-70
2023/08/16 08:45:01;;;;;;;4.30;2.92;;;28.20;99.90;;;;;;5052322;28;20238;-70
2023/08/16 08:47:30;;;;;;;7.15;2.85;;;28.40;99.90;;;;;;5052759;28;20203;-70
2023/08/16 08:49:59;;;;;;;3.22;2.92;;;28.40;99.90;;;;;;5052465;28;20237;-73
2023/08/16 08:52:27;;;;;;;4.63;3.33;;;28.40;99.90;;;;;;5052389;28;20697;-70
2023/08/16 08:54:56;;;;;;;3.40;3.20;;;28.00;99.90;;;;;;5052189;28;20206;-71
2023/08/16 08:57:24;;;;;;;4.38;3.33;;;27.60;99.90;;;;;;5052194;28;20207;-72
2023/08/16 08:59:53;;;;;;;3.60;3.30;;;27.70;99.90;;;;;;5052316;28;20264;-71
2023/08/16 09:02:20;;;;;;;4.30;3.90;;;27.90;99.90;;;;;;5052516;28;20214;-70
2023/08/16 09:04:50;;;;;;;3.63;3.35;;;28.20;99.90;;;;;;5050265;28;20242;-70
2023/08/16 09:07:18;;;;;;;4.00;3.55;;;28.40;99.90;;;;;;5052236;28;20590;-70
2023/08/16 09:09:48;;;;;;;7.85;3.70;;;28.70;99.90;;;;;;5052072;28;20230;-70
2023/08/16 09:12:18;;;;;;;4.13;3.80;;;28.60;99.90;;;;;;5047608;28;20208;-71
2023/08/16 09:14:45;;;;;;;4.57;4.18;;;28.30;99.90;;;;;;5049266;28;20202;-71
2023/08/16 09:17:12;;;;;;;3.67;3.13;;;28.70;99.90;;;;;;5050682;28;20588;-75
2023/08/16 09:19:44;;;;;;;3.85;3.53;;;29.50;99.90;;;;;;5049000;28;20234;-71
2023/08/16 09:22:11;;;;;;;5.13;4.18;;;29.50;99.90;;;;;;5050150;28;20670;-71
2023/08/16 09:24:40;;;;;;;5.00;4.60;;;29.80;99.90;;;;;;5045491;28;20207;-70
2023/08/16 09:27:07;;;;;;;4.50;4.10;;;30.00;99.90;;;;;;5050537;28;20630;-71
2023/08/16 09:29:39;;;;;;;3.55;3.25;;;29.70;99.90;;;;;;5049702;28;20315;-71
2023/08/16 09:32:07;;;;;;;8.32;4.72;;;29.90;99.90;;;;;;5059714;28;20210;-71
2023/08/16 09:34:34;;;;;;;3.55;3.25;;;30.30;99.90;;;;;;5052592;28;20203;-72
2023/08/16 09:37:02;;;;;;;4.05;3.30;;;31.00;99.90;;;;;;5051900;28;20229;-72
2023/08/16 09:39:29;;;;;;;3.72;3.42;;;31.30;99.90;;;;;;5050888;28;20206;-71
2023/08/16 09:41:57;;;;;;;3.78;3.47;;;31.50;99.90;;;;;;5048706;28;20233;-71
2023/08/16 09:44:28;;;;;;;3.17;2.97;;;31.30;99.90;;;;;;5050344;28;20202;-71
2023/08/16 09:46:57;;;;;;;3.70;3.40;;;31.20;99.90;;;;;;5050953;28;20245;-73
2023/08/16 09:49:25;;;;;;;4.03;3.45;;;31.70;99.90;;;;;;5039855;28;20671;-71
2023/08/16 09:51:52;;;;;;;3.78;3.38;;;32.20;99.90;;;;;;5050780;28;20210;-71
2023/08/16 09:54:19;;;;;;;4.97;3.42;;;31.80;99.90;;;;;;5049893;28;20214;-71
2023/08/16 09:56:47;;;;;;;3.45;3.08;;;32.10;99.90;;;;;;5049370;28;20234;-72
2023/08/16 09:59:15;;;;;;;4.13;3.13;;;31.50;99.90;;;;;;5049309;28;20207;-71
2023/08/16 10:01:42;;;;;;;4.47;3.22;;;30.90;99.90;;;;;;5049599;28;20289;-71
2023/08/16 10:04:11;;;;;;;3.72;3.42;;;30.10;99.90;;;;;;5048961;28;20210;-71
2023/08/16 10:06:39;;;;;;;5.47;3.67;;;29.30;99.90;;;;;;5050081;28;20641;-71
2023/08/16 10:09:09;;;;;;;3.72;3.42;;;29.10;99.90;;;;;;5049776;28;20221;-71
2023/08/16 10:11:37;;;;;;;3.75;3.50;;;29.10;99.90;;;;;;5050884;28;20245;-73
2023/08/16 10:14:07;;;;;;;5.78;3.05;;;28.70;99.90;;;;;;5050486;28;20216;-72
2023/08/16 10:16:36;;;;;;;3.63;3.25;;;28.60;99.90;;;;;;5050367;28;20721;-71
2023/08/16 10:19:04;;;;;;;4.20;3.80;;;28.50;99.90;;;;;;5050334;28;20741;-71
2023/08/16 10:21:38;;;;;;;5.85;3.88;;;28.40;99.90;;;;;;5050943;28;20247;-72
2023/08/16 10:24:09;;;;;;;4.70;4.35;;;28.90;99.90;;;;;;5050360;28;20217;-71
2023/08/16 10:26:38;;;;;;;5.20;3.67;;;29.20;99.90;;;;;;5050535;28;20732;-71
2023/08/16 10:29:09;;;;;;;4.10;3.78;;;29.30;99.90;;;;;;5050315;28;20297;-73
2023/08/16 10:31:40;;;;;;;4.93;4.32;;;29.20;99.90;;;;;;5050615;28;20270;-72
2023/08/16 10:34:08;;;;;;;4.45;4.05;;;29.30;99.90;;;;;;5049740;28;20203;-71
2023/08/16 10:36:37;;;;;;;3.80;3.50;;;29.80;99.90;;;;;;5050924;28;20209;-71
2023/08/16 10:39:04;;;;;;;4.97;4.47;;;29.80;99.90;;;;;;5049946;28;20626;-70
2023/08/16 10:41:40;;;;;;;4.43;3.97;;;29.80;99.90;;;;;;5050508;28;20210;-73
2023/08/16 10:44:08;;;;;;;4.30;3.95;;;29.60;99.90;;;;;;5050200;28;20214;-71
2023/08/16 10:46:36;;;;;;;4.90;3.90;;;29.80;99.90;;;;;;5050664;28;20301;-70
2023/08/16 10:49:05;;;;;;;4.82;4.43;;;30.00;99.90;;;;;;5050028;28;20709;-74
2023/08/16 10:51:44;;;;;;;5.10;4.65;;;30.00;99.90;;;;;;5050491;28;20240;-72
2023/08/16 10:54:11;;;;;;;3.90;3.47;;;29.80;99.90;;;;;;5049925;28;20565;-71
2023/08/16 10:56:44;;;;;;;5.18;4.78;;;30.00;99.90;;;;;;5050565;28;20693;-72
2023/08/16 10:59:11;;;;;;;4.40;4.00;;;29.40;99.90;;;;;;5050332;28;20665;-71
2023/08/16 11:01:46;;;;;;;5.00;4.60;;;29.50;99.90;;;;;;5050416;28;20245;-70
2023/08/16 11:04:13;;;;;;;5.05;4.57;;;29.40;99.90;;;;;;5050331;28;20212;-70
2023/08/16 11:06:40;;;;;;;4.30;3.72;;;29.10;99.90;;;;;;5050631;28;20230;-70
2023/08/16 11:09:09;;;;;;;4.50;4.13;;;29.30;99.90;;;;;;5049970;28;20359;-71
2023/08/16 11:11:37;;;;;;;6.70;3.80;;;29.50;99.90;;;;;;5049933;28;20237;-72
2023/08/16 11:14:04;;;;;;;4.30;4.00;;;29.40;99.90;;;;;;5049829;28;20217;-70
2023/08/16 11:16:31;;;;;;;5.18;4.68;;;29.50;99.90;;;;;;5050067;28;20618;-70
2023/08/16 11:19:04;;;;;;;6.05;4.30;;;29.50;99.90;;;;;;5049479;28;20564;-70
2023/08/16 11:21:34;;;;;;;6.57;4.38;;;29.80;99.90;;;;;;5050235;28;20210;-70
2023/08/16 11:24:02;;;;;;;5.65;5.05;;;29.90;99.90;;;;;;5049663;28;20202;-71
2023/08/16 11:26:38;;;;;;;4.60;4.20;;;30.10;99.90;;;;;;5050254;28;20232;-71
2023/08/16 11:29:06;;;;;;;4.97;4.57;;;30.40;99.90;;;;;;5051939;28;20202;-71
2023/08/16 11:31:34;;;;;;;5.22;4.72;;;30.30;99.90;;;;;;5054118;28;20321;-71
2023/08/16 11:34:00;;;;;;;4.80;4.40;;;30.60;99.90;;;;;;5053451;28;20242;-70
2023/08/16 11:36:27;;;;;;;5.25;4.53;;;30.70;99.90;;;;;;5054023;28;20655;-70
2023/08/16 11:38:54;;;;;;;5.03;4.63;;;30.70;99.90;;;;;;5053591;28;20202;-71
2023/08/16 11:41:21;;;;;;;3.53;3.28;;;30.60;99.90;;;;;;5053819;28;20234;-70
2023/08/16 11:43:58;;;;;;;5.70;4.68;;;30.20;99.90;;;;;;5053193;28;20206;-71
2023/08/16 11:46:25;;;;;;;5.53;4.30;;;30.10;99.90;;;;;;5053904;28;20208;-70
2023/08/16 11:48:52;;;;;;;6.10;4.72;;;30.10;99.90;;;;;;5053319;28;20264;-71
2023/08/16 11:51:19;;;;;;;5.22;4.28;;;29.90;99.90;;;;;;5053536;28;20270;-70
2023/08/16 11:53:46;;;;;;;5.32;4.50;;;29.80;99.90;;;;;;5053636;28;20238;-70
2023/08/16 11:56:13;;;;;;;4.78;4.30;;;30.10;99.90;;;;;;5054105;28;20198;-70
2023/08/16 11:58:44;;;;;;;5.80;4.57;;;30.20;99.90;;;;;;5053913;28;20242;-71
2023/08/16 12:01:14;;;;;;;5.30;4.55;;;30.10;99.90;;;;;;5053283;28;20293;-71
2023/08/16 12:03:42;;;;;;;5.00;4.15;;;30.30;99.90;;;;;;5053769;28;20207;-72
2023/08/16 12:06:10;;;;;;;3.78;3.40;;;29.90;99.90;;;;;;5053102;28;20220;-71
2023/08/16 12:08:37;;;;;;;5.00;4.60;;;29.80;99.90;;;;;;5053420;28;20210;-71
2023/08/16 12:11:04;;;;;;;4.30;3.90;;;29.80;99.90;;;;;;5052975;28;20796;-71
2023/08/16 12:13:34;;;;;;;4.18;3.75;;;30.20;99.90;;;;;;5053619;28;20214;-71
2023/08/16 12:16:01;;;;;;;5.20;4.78;;;29.90;99.90;;;;;;5052876;28;20234;-71
2023/08/16 12:18:30;;;;;;;4.95;4.55;;;30.10;99.90;;;;;;5053344;28;20238;-71
2023/08/16 12:20:56;;;;;;;5.25;4.75;;;30.20;99.90;;;;;;5052580;28;20261;-73
2023/08/16 12:23:23;;;;;;;5.35;4.88;;;30.10;99.90;;;;;;5052960;28;20658;-73
2023/08/16 12:25:50;;;;;;;5.45;5.05;;;29.90;99.90;;;;;;5052692;28;20237;-70
2023/08/16 12:28:18;;;;;;;4.97;4.60;;;30.10;99.90;;;;;;5052802;28;20702;-71
2023/08/16 12:30:44;;;;;;;4.78;4.28;;;30.10;99.90;;;;;;5053020;28;20825;-71
2023/08/16 12:33:12;;;;;;;5.35;4.63;;;30.30;99.90;;;;;;5053058;28;20242;-71
2023/08/16 12:35:40;;;;;;;4.97;4.55;;;30.40;99.90;;;;;;5051961;28;20204;-70
2023/08/16 12:38:07;;;;;;;4.38;3.97;;;30.40;99.90;;;;;;5052441;28;20250;-70
2023/08/16 12:40:34;;;;;;;4.70;4.30;;;30.60;99.90;;;;;;5052186;28;20210;-71
2023/08/16 12:43:02;;;;;;;4.82;4.43;;;30.60;99.90;;;;;;5052781;28;20230;-70
2023/08/16 12:45:29;;;;;;;6.43;4.72;;;30.40;99.90;;;;;;5052794;28;20210;-71
2023/08/16 12:47:56;;;;;;;5.75;5.25;;;30.70;99.90;;;;;;5052423;28;20241;-71
2023/08/16 12:50:23;;;;;;;4.80;4.40;;;30.90;99.90;;;;;;5052248;28;20234;-70